Time;durP1;ratioP1;P1;durP2;ratioP2;P2;SDS_P1;SDS_P2;PMS_P1;PMS_P2;Temp;Humidity;BMP_temperature;BMP_pressure;BME280_temperature;BME280_humidity;BME280_pressure;Samples;Min_cycle;Max_cycle;Signal;HPM_P1;HPM_P2
2022/09/07 00:00:48;;;;;;;11.90;4.60;;;;;;;13.94;61.86;99567.53;8172327;29;20052;-86
2022/09/07 00:04:49;;;;;;;10.23;3.97;;;;;;;13.90;62.02;99566.59;8158568;29;20385;-89
2022/09/07 00:08:50;;;;;;;9.25;4.53;;;;;;;13.85;62.06;99558.56;8183274;29;20063;-88
2022/09/07 00:12:51;;;;;;;13.50;4.60;;;;;;;13.82;62.25;99553.78;8172583;29;20103;-88
2022/09/07 00:16:52;;;;;;;8.30;4.05;;;;;;;13.75;62.27;99553.47;8171517;29;20067;-87
2022/09/07 00:21:01;;;;;;;12.02;4.00;;;;;;;13.70;62.53;99556.34;8180173;29;20043;-87
2022/09/07 00:25:02;;;;;;;9.23;4.30;;;;;;;13.65;62.65;99551.06;8138723;29;20473;-88
2022/09/07 00:29:05;;;;;;;10.05;3.67;;;;;;;13.62;62.54;99553.63;8175113;29;20047;-89
2022/09/07 00:33:06;;;;;;;12.88;4.95;;;;;;;13.58;62.81;99547.25;8171805;29;20103;-92
2022/09/07 00:37:07;;;;;;;13.10;4.20;;;;;;;13.57;62.67;99546.44;8148753;29;20556;-84
2022/09/07 00:41:08;;;;;;;14.65;4.40;;;;;;;13.54;62.67;99552.47;8172198;29;20393;-89
2022/09/07 00:45:18;;;;;;;10.13;4.15;;;;;;;13.52;62.88;99552.03;8147773;29;20043;-90
2022/09/07 00:49:20;;;;;;;8.80;3.83;;;;;;;13.48;62.63;99559.19;8170885;29;20051;-84
2022/09/07 00:53:29;;;;;;;13.40;3.95;;;;;;;13.41;62.85;99548.00;8160986;29;20053;-86
2022/09/07 00:57:30;;;;;;;12.02;4.00;;;;;;;13.37;62.78;99547.06;8140384;29;20055;-84
2022/09/07 01:01:32;;;;;;;10.32;4.32;;;;;;;13.37;62.75;99541.63;8153562;29;20134;-88
2022/09/07 01:05:37;;;;;;;9.90;4.55;;;;;;;13.34;62.61;99536.81;8171036;29;20050;-88
2022/09/07 01:09:39;;;;;;;11.00;3.80;;;;;;;13.30;62.51;99541.28;8170373;29;20080;-89
2022/09/07 01:13:42;;;;;;;7.15;3.50;;;;;;;13.28;62.72;99538.06;8137410;29;20043;-88
2022/09/07 01:17:56;;;;;;;9.98;4.15;;;;;;;13.27;62.54;99536.50;8153627;29;20048;-85
2022/09/07 01:22:35;;;;;;;11.10;3.60;;;;;;;13.28;62.57;99538.06;8094532;29;20048;-86
2022/09/07 01:27:02;;;;;;;8.30;3.85;;;;;;;13.28;62.29;99532.66;8053955;29;20081;-87
2022/09/07 01:31:32;;;;;;;7.70;3.72;;;;;;;13.28;62.21;99527.22;7956685;29;20054;-86
2022/09/07 01:35:39;;;;;;;20.70;3.75;;;;;;;13.25;62.07;99517.81;7935691;29;20518;-91
2022/09/07 01:39:55;;;;;;;11.23;3.75;;;;;;;13.26;61.87;99524.03;7929379;29;20047;-85
2022/09/07 01:44:16;;;;;;;12.50;3.53;;;;;;;13.24;61.91;99526.25;7922031;29;20094;-86
2022/09/07 01:48:18;;;;;;;8.15;3.70;;;;;;;13.21;61.91;99522.28;7926776;29;20375;-87
2022/09/07 01:52:31;;;;;;;15.27;3.45;;;;;;;13.18;61.69;99516.66;7954123;29;20055;-85
2022/09/07 01:56:37;;;;;;;15.20;3.97;;;;;;;13.13;61.72;99519.53;7970558;29;20055;-89
2022/09/07 02:00:43;;;;;;;12.20;3.42;;;;;;;13.10;61.57;99515.53;7937899;29;20055;-87
2022/09/07 02:04:50;;;;;;;10.65;3.60;;;;;;;13.04;61.56;99506.72;7935844;29;20051;-91
2022/09/07 02:08:53;;;;;;;10.32;3.15;;;;;;;13.01;61.46;99512.78;8031314;29;20061;-88
2022/09/07 02:13:09;;;;;;;8.32;3.40;;;;;;;12.99;61.38;99515.00;8147821;29;20055;-86
2022/09/07 02:17:14;;;;;;;7.78;3.05;;;;;;;12.96;61.53;99504.78;8169421;29;20090;-86
2022/09/07 02:21:19;;;;;;;7.82;3.30;;;;;;;12.92;61.46;99520.09;8134139;29;20055;-86
2022/09/07 02:25:22;;;;;;;8.35;3.47;;;;;;;12.91;61.36;99502.22;8139110;29;20135;-85
2022/09/07 02:29:24;;;;;;;7.15;3.25;;;;;;;12.88;61.36;99508.28;8118134;29;20059;-84
2022/09/07 02:33:25;;;;;;;9.73;2.60;;;;;;;12.87;61.12;99501.25;8116897;29;20080;-85
2022/09/07 02:37:27;;;;;;;9.20;3.10;;;;;;;12.85;60.95;99498.03;8124440;29;20335;-86
2022/09/07 02:41:34;;;;;;;7.32;3.10;;;;;;;12.83;60.81;99505.72;8102985;29;20064;-86
2022/09/07 02:45:53;;;;;;;8.23;3.20;;;;;;;12.80;60.92;99500.91;8147673;29;20059;-86
2022/09/07 02:49:54;;;;;;;;;;;;;;;12.79;60.66;99493.91;8143963;29;20164;-86
2022/09/07 02:54:04;;;;;;;8.23;2.65;;;;;;;12.79;60.73;99495.81;8150424;29;19923;-85
2022/09/07 02:58:39;;;;;;;6.75;2.78;;;;;;;12.75;60.53;99495.63;8154203;29;20059;-91
2022/09/07 03:03:04;;;;;;;10.80;3.00;;;;;;;12.72;60.50;99487.31;8168091;29;20063;-90
2022/09/07 03:07:14;;;;;;;5.70;2.70;;;;;;;12.67;60.50;99490.97;8168437;29;20386;-87
2022/09/07 03:11:16;;;;;;;10.57;3.08;;;;;;;12.62;60.83;99499.25;8151895;29;20051;-89
2022/09/07 03:15:20;;;;;;;7.57;3.00;;;;;;;12.55;60.69;99493.47;8173718;29;20557;-92
2022/09/07 03:19:21;;;;;;;7.05;2.92;;;;;;;12.52;60.74;99499.53;8174327;29;20071;-88
2022/09/07 03:23:22;;;;;;;11.75;2.83;;;;;;;12.46;60.94;99496.16;8174579;29;20051;-90
2022/09/07 03:27:23;;;;;;;6.05;2.80;;;;;;;12.43;60.92;99495.94;8173822;29;20197;-88
2022/09/07 03:31:24;;;;;;;10.25;3.00;;;;;;;12.36;60.98;99495.63;8173483;29;20035;-85
2022/09/07 03:35:25;;;;;;;5.15;2.75;;;;;;;12.32;60.93;99489.22;8173885;29;20595;-86
2022/09/07 03:39:29;;;;;;;7.55;2.85;;;;;;;12.28;61.06;99495.25;8173872;29;20039;-87
2022/09/07 03:43:32;;;;;;;8.70;2.95;;;;;;;12.23;61.09;99492.66;8173710;29;20138;-88
2022/09/07 03:47:34;;;;;;;6.07;2.95;;;;;;;12.15;61.01;99489.94;8173117;29;20051;-88
2022/09/07 03:51:35;;;;;;;7.25;2.60;;;;;;;12.08;61.42;99479.53;8172985;29;20055;-89
2022/09/07 03:55:36;;;;;;;8.80;3.00;;;;;;;12.01;61.54;99479.16;8173043;29;20054;-89
2022/09/07 03:59:37;;;;;;;9.13;2.83;;;;;;;11.95;61.40;99480.38;8154794;29;20075;-85
2022/09/07 04:03:38;;;;;;;5.88;2.85;;;;;;;11.94;61.67;99473.41;8156025;29;20142;-89
2022/09/07 04:07:39;;;;;;;4.97;2.83;;;;;;;11.92;61.52;99470.19;8170394;29;20047;-83
2022/09/07 04:11:41;;;;;;;8.30;3.08;;;;;;;11.91;61.41;99479.41;8173086;29;20040;-89
2022/09/07 04:15:47;;;;;;;13.52;3.08;;;;;;;11.91;61.38;99474.00;8172390;29;20047;-89
2022/09/07 04:19:48;;;;;;;10.38;2.25;;;;;;;11.90;61.27;99472.38;8171751;29;20048;-87
2022/09/07 04:23:49;;;;;;;8.05;2.88;;;;;;;11.88;61.08;99474.63;8170989;28;20056;-86
2022/09/07 04:27:50;;;;;;;7.00;2.85;;;;;;;11.87;61.14;99478.44;8172209;29;20044;-84
2022/09/07 04:31:53;;;;;;;9.75;2.70;;;;;;;11.82;61.21;99465.03;8172328;29;20051;-88
2022/09/07 04:35:54;;;;;;;7.43;3.15;;;;;;;11.82;61.28;99459.63;8154314;29;20047;-85
2022/09/07 04:39:55;;;;;;;8.05;3.10;;;;;;;11.81;61.51;99463.41;8171758;29;20067;-85
2022/09/07 04:43:59;;;;;;;6.22;2.97;;;;;;;11.79;61.41;99465.66;8138002;29;20055;-85
2022/09/07 04:48:01;;;;;;;8.65;3.30;;;;;;;11.79;61.29;99465.66;8171962;29;20497;-88
2022/09/07 04:52:02;;;;;;;8.65;2.75;;;;;;;11.79;61.61;99449.41;8162398;29;20060;-89
2022/09/07 04:56:04;;;;;;;8.75;3.08;;;;;;;11.79;61.42;99454.81;8171323;29;20039;-89
2022/09/07 05:00:14;;;;;;;6.07;2.85;;;;;;;11.81;61.24;99452.59;8171251;29;20055;-85
2022/09/07 05:04:16;;;;;;;6.50;2.60;;;;;;;11.82;61.30;99454.19;8170324;29;20044;-87
2022/09/07 05:08:16;;;;;;;5.95;2.80;;;;;;;11.85;61.40;99464.41;8153942;29;20560;-88
2022/09/07 05:12:18;;;;;;;8.18;2.90;;;;;;;11.88;61.62;99458.38;8170943;29;20134;-86
2022/09/07 05:16:21;;;;;;;12.02;2.70;;;;;;;11.92;61.47;99464.78;8170689;29;20059;-87
2022/09/07 05:20:23;;;;;;;10.90;2.97;;;;;;;11.95;61.37;99474.97;8170549;29;20051;-87
2022/09/07 05:24:25;;;;;;;6.90;2.90;;;;;;;11.99;61.43;99467.84;8170609;29;20051;-84
2022/09/07 05:28:26;;;;;;;9.23;3.38;;;;;;;12.06;61.34;99470.91;8153937;29;20405;-88
2022/09/07 05:32:27;;;;;;;8.10;3.00;;;;;;;12.10;61.30;99477.31;8169237;29;20058;-88
2022/09/07 05:36:28;;;;;;;14.07;2.45;;;;;;;12.14;61.59;99472.88;8151135;29;20043;-85
2022/09/07 05:40:30;;;;;;;7.13;2.88;;;;;;;12.19;61.52;99474.66;8156588;29;20043;-87
2022/09/07 05:44:32;;;;;;;8.32;3.10;;;;;;;12.26;61.38;99470.41;8156676;29;20062;-87
2022/09/07 05:48:32;;;;;;;9.75;3.03;;;;;;;12.36;61.21;99473.94;8169688;29;20063;-89
2022/09/07 05:52:34;;;;;;;13.10;2.95;;;;;;;12.41;61.22;99468.41;8171873;29;20051;-85
2022/09/07 05:56:35;;;;;;;10.15;3.20;;;;;;;12.47;61.32;99464.44;8169873;29;20044;-87
2022/09/07 06:00:37;;;;;;;9.70;3.47;;;;;;;12.53;61.21;99468.63;8174701;29;20557;-86
2022/09/07 06:04:37;;;;;;;9.07;2.83;;;;;;;12.56;61.10;99473.41;8164611;29;20050;-84
2022/09/07 06:08:43;;;;;;;7.00;3.22;;;;;;;12.68;61.31;99465.50;8158579;29;20055;-87
2022/09/07 06:12:45;;;;;;;9.55;3.22;;;;;;;12.82;61.15;99471.59;8160707;29;20095;-86
2022/09/07 06:16:46;;;;;;;6.55;2.90;;;;;;;12.92;61.22;99474.00;8160894;29;20143;-86
2022/09/07 06:20:47;;;;;;;8.50;3.22;;;;;;;13.02;61.12;99465.56;8160728;29;20079;-87
2022/09/07 06:24:48;;;;;;;15.73;5.28;;;;;;;13.14;61.07;99475.03;8162750;29;20126;-84
2022/09/07 06:28:48;;;;;;;12.65;3.97;;;;;;;13.24;61.02;99466.59;8168366;29;20040;-87
2022/09/07 06:32:49;;;;;;;11.30;3.55;;;;;;;13.33;60.92;99464.69;8162813;29;20048;-88
2022/09/07 06:36:50;;;;;;;9.75;3.15;;;;;;;13.46;61.12;99455.59;8163037;29;20043;-89
2022/09/07 06:40:51;;;;;;;12.43;3.38;;;;;;;13.61;61.16;99455.13;8157701;29;20058;-85
2022/09/07 06:44:52;;;;;;;10.30;3.28;;;;;;;13.74;60.85;99459.59;8172176;28;20062;-86
2022/09/07 06:48:54;;;;;;;8.85;3.55;;;;;;;13.81;61.03;99454.47;8174325;29;20040;-84
2022/09/07 06:52:54;;;;;;;18.25;3.80;;;;;;;13.84;61.12;99459.28;8171629;29;20091;-85
2022/09/07 06:56:55;;;;;;;7.82;3.50;;;;;;;13.86;61.20;99457.00;8168344;29;20112;-84
2022/09/07 07:00:57;;;;;;;13.23;4.28;;;;;;;13.94;61.18;99452.72;8170608;29;20048;-88
2022/09/07 07:04:58;;;;;;;11.70;4.28;;;;;;;14.02;61.32;99459.22;8174838;29;20392;-85
2022/09/07 07:08:58;;;;;;;8.77;3.72;;;;;;;14.09;61.72;99448.69;8174695;29;20062;-87
2022/09/07 07:12:59;;;;;;;12.82;3.42;;;;;;;14.14;61.50;99452.00;8171501;29;20063;-89
2022/09/07 07:17:00;;;;;;;13.93;3.45;;;;;;;14.24;61.82;99456.31;8168600;29;20075;-85
2022/09/07 07:21:06;;;;;;;12.38;4.28;;;;;;;14.28;61.91;99441.75;8167815;29;20047;-84
2022/09/07 07:25:08;;;;;;;10.55;3.85;;;;;;;14.37;61.64;99449.91;8136227;29;20059;-88
2022/09/07 07:29:09;;;;;;;14.32;4.72;;;;;;;14.50;61.67;99453.53;8168025;29;20047;-86
2022/09/07 07:33:10;;;;;;;13.45;4.88;;;;;;;14.61;61.24;99455.56;8167818;29;20162;-89
2022/09/07 07:37:11;;;;;;;11.52;4.43;;;;;;;14.74;61.47;99454.56;8170177;29;20488;-90
2022/09/07 07:41:13;;;;;;;9.63;4.53;;;;;;;14.87;61.47;99468.22;8152140;29;20142;-86
2022/09/07 07:45:16;;;;;;;13.02;4.20;;;;;;;14.98;61.51;99469.44;8164663;29;20051;-90
2022/09/07 07:49:17;;;;;;;16.70;4.70;;;;;;;15.10;61.24;99472.25;8166997;29;20042;-88
2022/09/07 07:53:18;;;;;;;16.50;4.70;;;;;;;15.20;61.26;99463.72;8167762;29;20083;-86
2022/09/07 07:57:19;;;;;;;16.02;4.63;;;;;;;15.36;61.09;99453.84;8168597;29;20134;-89
2022/09/07 08:01:20;;;;;;;13.25;4.55;;;;;;;15.50;61.15;99464.44;8133425;29;20063;-86
2022/09/07 08:05:21;;;;;;;15.18;4.50;;;;;;;15.60;60.95;99464.88;8171117;29;20103;-84
2022/09/07 08:09:22;;;;;;;12.13;4.63;;;;;;;15.70;60.96;99457.44;8169157;29;20055;-86
2022/09/07 08:13:29;;;;;;;15.68;4.85;;;;;;;15.85;61.21;99465.00;8168847;29;20054;-83
2022/09/07 08:17:30;;;;;;;20.98;4.20;;;;;;;15.97;60.91;99456.84;8170662;29;20470;-86
2022/09/07 08:21:31;;;;;;;13.02;4.72;;;;;;;16.14;60.71;99473.03;8164117;29;20052;-85
2022/09/07 08:25:33;;;;;;;16.65;4.75;;;;;;;16.28;60.87;99468.09;8166442;29;20052;-83
2022/09/07 08:29:34;;;;;;;14.35;5.43;;;;;;;16.40;60.49;99479.00;8163219;29;20074;-85
2022/09/07 08:33:37;;;;;;;13.15;4.72;;;;;;;16.48;60.49;99478.13;8168033;29;20658;-87
2022/09/07 08:37:38;;;;;;;13.52;4.30;;;;;;;16.58;60.37;99471.41;8150785;29;20050;-86
2022/09/07 08:42:03;;;;;;;12.60;5.03;;;;;;;16.70;60.09;99473.41;8167983;29;20798;-86
2022/09/07 08:46:33;;;;;;;10.45;4.90;;;;;;;16.82;60.18;99465.19;8163604;29;20043;-83
2022/09/07 08:50:44;;;;;;;12.13;4.22;;;;;;;16.93;59.61;99452.69;8130027;29;20060;-85
2022/09/07 08:54:54;;;;;;;20.13;5.30;;;;;;;17.08;59.92;99446.53;8112282;29;20132;-84
2022/09/07 08:58:55;;;;;;;16.20;4.38;;;;;;;17.27;59.87;99432.31;8119539;29;20049;-83
2022/09/07 09:02:57;;;;;;;15.93;4.85;;;;;;;17.50;59.30;99435.31;8130597;29;20052;-85
2022/09/07 09:07:04;;;;;;;7.55;4.28;;;;;;;17.70;58.85;99434.38;8113727;29;20501;-86
2022/09/07 09:11:38;;;;;;;14.23;4.60;;;;;;;17.83;58.01;99427.69;8153884;29;20048;-83
2022/09/07 09:15:52;;;;;;;12.82;4.57;;;;;;;17.95;57.76;99427.63;8145905;29;20044;-84
2022/09/07 09:20:14;;;;;;;16.75;5.03;;;;;;;18.14;57.56;99427.75;8159174;29;20120;-84
2022/09/07 09:24:18;;;;;;;12.27;4.60;;;;;;;18.33;57.78;99431.75;8152533;29;20050;-84
2022/09/07 09:28:19;;;;;;;9.82;4.35;;;;;;;18.51;56.91;99430.22;8166741;29;20071;-85
2022/09/07 09:32:35;;;;;;;16.90;3.97;;;;;;;18.77;56.12;99427.78;8168264;29;20052;-83
2022/09/07 09:36:48;;;;;;;11.30;3.72;;;;;;;18.91;55.62;99422.66;8161635;29;20044;-83
2022/09/07 09:40:54;;;;;;;15.18;4.00;;;;;;;19.10;55.40;99412.88;8168344;29;20183;-83
2022/09/07 09:45:01;;;;;;;10.38;4.05;;;;;;;19.21;55.08;99408.44;8177310;29;20122;-82
2022/09/07 09:49:25;;;;;;;15.30;3.80;;;;;;;19.34;55.32;99409.91;8181300;29;20044;-89
2022/09/07 09:53:33;;;;;;;11.45;3.97;;;;;;;19.54;55.12;99406.03;8132852;29;20810;-84
2022/09/07 09:57:57;;;;;;;8.30;3.85;;;;;;;19.74;54.19;99410.34;8148988;29;20068;-85
2022/09/07 10:01:58;;;;;;;11.48;3.50;;;;;;;19.92;54.11;99399.75;8130347;29;20048;-83
2022/09/07 10:06:01;;;;;;;12.27;3.90;;;;;;;20.00;52.53;99398.69;8132977;29;20048;-86
2022/09/07 10:10:02;;;;;;;13.05;3.40;;;;;;;20.05;51.69;99392.13;8143886;29;20075;-84
2022/09/07 10:14:03;;;;;;;8.80;3.30;;;;;;;20.22;52.37;99397.13;8112200;29;20056;-87
2022/09/07 10:18:05;;;;;;;13.02;3.22;;;;;;;20.38;51.23;99389.59;8129854;29;20527;-82
2022/09/07 10:22:21;;;;;;;8.73;3.67;;;;;;;20.41;51.45;99383.38;8129877;29;20051;-83
2022/09/07 10:26:28;;;;;;;16.27;3.90;;;;;;;20.47;51.32;99376.41;8130103;29;20048;-83
2022/09/07 10:30:39;;;;;;;13.27;3.90;;;;;;;20.53;50.85;99380.44;8154079;29;20056;-83
2022/09/07 10:34:40;;;;;;;11.05;3.95;;;;;;;20.63;50.24;99396.28;8160466;29;20134;-83
2022/09/07 10:38:46;;;;;;;6.95;3.42;;;;;;;20.83;50.09;99407.19;8163384;29;20130;-87
2022/09/07 10:43:04;;;;;;;6.30;3.72;;;;;;;20.91;49.78;99400.59;8163977;29;20474;-83
2022/09/07 10:47:29;;;;;;;11.93;3.90;;;;;;;21.08;50.02;99394.59;8133450;29;20047;-83
2022/09/07 10:52:07;;;;;;;8.00;3.60;;;;;;;21.26;49.36;99384.66;8166941;29;20051;-84
2022/09/07 10:56:22;;;;;;;10.07;3.45;;;;;;;21.35;48.62;99371.44;8164887;29;20048;-87
2022/09/07 11:00:24;;;;;;;11.82;3.40;;;;;;;21.41;48.99;99375.41;8161956;29;20117;-86
2022/09/07 11:04:40;;;;;;;11.70;3.42;;;;;;;21.49;49.11;99377.09;8162119;29;20506;-86
2022/09/07 11:09:05;;;;;;;10.38;3.25;;;;;;;21.63;47.56;99386.66;8164249;29;20064;-86
2022/09/07 11:13:11;;;;;;;6.72;3.25;;;;;;;21.75;47.32;99391.91;8165825;29;20394;-84
2022/09/07 11:17:16;;;;;;;17.63;3.40;;;;;;;21.79;47.89;99389.97;8165181;29;20489;-83
2022/09/07 11:21:22;;;;;;;10.05;3.42;;;;;;;21.79;47.77;99395.47;8161806;29;20044;-83
2022/09/07 11:25:38;;;;;;;8.55;3.05;;;;;;;21.93;48.38;99379.16;8132876;29;20055;-82
2022/09/07 11:29:43;;;;;;;15.73;3.50;;;;;;;22.03;48.52;99372.19;8165112;29;20055;-86
2022/09/07 11:34:04;;;;;;;18.20;4.75;;;;;;;22.19;47.54;99365.28;8173163;29;20059;-84
2022/09/07 11:38:13;;;;;;;13.05;3.92;;;;;;;22.23;47.73;99366.09;8183184;29;20052;-88
2022/09/07 11:42:30;;;;;;;14.68;3.10;;;;;;;22.28;46.42;99363.00;8173104;29;20494;-84
2022/09/07 11:46:42;;;;;;;10.18;3.33;;;;;;;22.30;46.60;99355.16;8164794;29;20110;-84
2022/09/07 11:50:48;;;;;;;11.82;3.40;;;;;;;22.39;47.08;99356.78;8163521;29;20056;-82
2022/09/07 11:54:51;;;;;;;10.52;3.13;;;;;;;22.58;46.83;99362.03;8172861;29;20052;-84
2022/09/07 11:59:11;;;;;;;9.75;3.30;;;;;;;22.55;45.92;99360.06;8173233;29;20075;-86
2022/09/07 12:03:29;;;;;;;9.57;3.60;;;;;;;22.62;46.77;99365.63;8172552;29;20511;-86
2022/09/07 12:07:48;;;;;;;7.35;3.30;;;;;;;22.76;46.57;99360.22;8173050;29;20055;-88
2022/09/07 12:11:59;;;;;;;8.68;2.97;;;;;;;22.86;45.57;99354.00;8160711;29;20047;-84
2022/09/07 12:16:18;;;;;;;5.20;3.30;;;;;;;22.96;46.08;99356.03;8172776;29;20076;-83
2022/09/07 12:20:19;;;;;;;;;;;;;;;22.95;46.05;99345.38;8170963;29;20060;-83
2022/09/07 12:24:47;;;;;;;8.52;3.15;;;;;;;22.95;45.43;99326.91;8171543;29;19923;-84
2022/09/07 12:28:48;;;;;;;9.18;3.25;;;;;;;22.96;45.92;99325.72;8171037;29;20071;-83
2022/09/07 12:32:50;;;;;;;10.02;3.58;;;;;;;23.06;46.47;99322.22;8172604;29;20052;-83
2022/09/07 12:36:51;;;;;;;7.40;3.17;;;;;;;22.92;46.71;99319.41;8172108;29;20058;-83
2022/09/07 12:41:22;;;;;;;6.65;3.17;;;;;;;23.06;46.88;99316.72;8172327;29;20533;-85
2022/09/07 12:45:30;;;;;;;8.82;3.45;;;;;;;23.20;47.07;99309.72;8171861;29;20692;-84
2022/09/07 12:50:05;;;;;;;5.10;3.20;;;;;;;23.28;46.23;99308.53;8170846;29;20054;-82
2022/09/07 12:54:18;;;;;;;7.50;3.47;;;;;;;23.22;46.92;99296.31;8169942;29;20543;-84
2022/09/07 12:58:40;;;;;;;7.85;3.50;;;;;;;23.21;46.63;99292.00;8142589;29;20102;-82
2022/09/07 13:03:06;;;;;;;9.23;3.28;;;;;;;23.19;47.32;99294.34;8171313;29;20051;-85
2022/09/07 13:07:39;;;;;;;7.80;3.80;;;;;;;23.25;47.09;99287.28;8121062;29;20461;-84
2022/09/07 13:11:40;;;;;;;7.93;3.63;;;;;;;23.23;47.01;99301.44;8170084;29;20111;-83
2022/09/07 13:15:49;;;;;;;8.07;3.42;;;;;;;23.23;46.93;99289.63;8169882;29;20046;-86
2022/09/07 13:19:50;;;;;;;8.82;3.85;;;;;;;23.45;47.20;99283.84;8170232;29;20405;-86
2022/09/07 13:24:17;;;;;;;7.47;3.92;;;;;;;24.79;44.44;99269.22;8142632;29;20056;-83
2022/09/07 13:28:35;;;;;;;9.13;3.60;;;;;;;25.72;43.17;99257.72;8164593;29;20042;-85
2022/09/07 13:32:37;;;;;;;12.30;3.38;;;;;;;27.15;41.47;99265.03;8150839;29;20052;-83
2022/09/07 13:36:44;;;;;;;10.15;3.50;;;;;;;28.39;39.20;99267.91;8120560;29;20058;-88
2022/09/07 13:40:47;;;;;;;11.47;4.33;;;;;;;29.51;38.11;99268.84;8153551;29;20063;-82
2022/09/07 13:45:00;;;;;;;9.02;3.60;;;;;;;30.19;35.91;99268.84;8135999;29;20149;-82
2022/09/07 13:49:21;;;;;;;6.05;3.50;;;;;;;30.78;35.59;99270.44;8169343;29;20115;-86
2022/09/07 13:53:33;;;;;;;6.82;3.20;;;;;;;31.44;34.86;99256.56;8169194;29;20056;-83
2022/09/07 13:57:37;;;;;;;6.70;3.20;;;;;;;32.31;34.32;99266.56;8159944;29;20051;-84
2022/09/07 14:01:42;;;;;;;11.15;5.10;;;;;;;33.13;32.72;99264.41;8168712;29;20075;-84
2022/09/07 14:05:43;;;;;;;13.27;3.53;;;;;;;33.30;32.08;99257.38;8167573;29;20044;-85
2022/09/07 14:09:49;;;;;;;8.95;3.30;;;;;;;32.91;31.27;99259.63;8169327;29;20075;-83
2022/09/07 14:14:10;;;;;;;5.72;3.40;;;;;;;33.09;31.67;99259.75;8152426;29;20132;-84
2022/09/07 14:18:13;;;;;;;5.63;2.92;;;;;;;33.23;31.41;99258.44;8167226;29;20106;-83
2022/09/07 14:22:17;;;;;;;9.25;2.80;;;;;;;33.28;31.21;99254.25;8168921;29;20048;-83
2022/09/07 14:26:20;;;;;;;7.47;3.60;;;;;;;33.45;30.25;99252.78;8169005;29;20059;-85
2022/09/07 14:30:26;;;;;;;5.30;2.90;;;;;;;33.75;30.46;99248.41;8167484;29;20473;-85
2022/09/07 14:34:31;;;;;;;6.10;3.20;;;;;;;33.72;30.21;99238.94;8170875;29;20452;-84
2022/09/07 14:38:34;;;;;;;6.35;3.40;;;;;;;32.37;31.67;99248.75;8151450;29;20048;-84
2022/09/07 14:42:40;;;;;;;7.55;3.20;;;;;;;30.74;33.60;99236.31;8168185;29;20488;-85
2022/09/07 14:46:45;;;;;;;5.53;3.50;;;;;;;29.31;35.72;99230.75;8170525;29;20079;-84
2022/09/07 14:50:47;;;;;;;9.43;3.20;;;;;;;28.15;37.18;99231.03;8169348;29;20102;-83
2022/09/07 14:54:51;;;;;;;5.45;3.25;;;;;;;27.29;38.68;99212.16;8169878;29;20466;-84
2022/09/07 14:59:30;;;;;;;14.95;3.80;;;;;;;26.64;39.86;99215.38;8170532;29;20063;-87
2022/09/07 15:03:32;;;;;;;;;;;;;;;26.14;40.61;99215.06;8165370;29;20115;-84
2022/09/07 15:07:44;;;;;;;7.03;3.97;;;;;;;25.82;41.79;99212.59;8149060;29;20289;-87
2022/09/07 15:11:45;;;;;;;7.97;4.28;;;;;;;25.54;42.59;99208.81;8144673;29;20063;-83
2022/09/07 15:15:55;;;;;;;5.93;3.60;;;;;;;25.25;43.46;99201.94;8180547;29;20528;-84
2022/09/07 15:19:56;;;;;;;6.45;3.80;;;;;;;25.05;44.21;99200.88;8175333;29;20043;-85
2022/09/07 15:23:59;;;;;;;11.98;4.00;;;;;;;24.93;44.40;99195.78;8157554;29;20059;-84
2022/09/07 15:28:00;;;;;;;11.32;4.15;;;;;;;24.72;44.34;99197.44;8187729;29;20075;-85
2022/09/07 15:32:01;;;;;;;7.75;3.90;;;;;;;24.60;45.15;99195.09;8197744;29;20051;-84
2022/09/07 15:36:02;;;;;;;6.28;3.72;;;;;;;24.44;45.58;99185.69;8173577;29;20051;-83
2022/09/07 15:40:19;;;;;;;9.25;4.00;;;;;;;24.30;46.32;99183.78;8177738;29;20410;-85
2022/09/07 15:44:21;;;;;;;8.25;3.95;;;;;;;24.15;46.83;99190.50;8146996;29;20052;-83
2022/09/07 15:48:23;;;;;;;8.73;4.40;;;;;;;23.95;47.61;99185.38;8172888;29;20087;-83
2022/09/07 15:52:24;;;;;;;8.25;3.38;;;;;;;23.69;47.83;99185.78;8173343;29;20410;-83
2022/09/07 15:56:25;;;;;;;5.90;3.95;;;;;;;23.46;49.00;99188.16;8172008;29;20056;-86
2022/09/07 16:00:26;;;;;;;7.15;3.97;;;;;;;23.25;49.93;99188.91;8173052;29;20052;-84
2022/09/07 16:04:27;;;;;;;9.27;4.15;;;;;;;23.04;50.71;99189.63;8172737;29;20126;-84
2022/09/07 16:08:28;;;;;;;8.77;4.50;;;;;;;22.89;51.36;99193.53;8172386;29;20055;-84
2022/09/07 16:12:31;;;;;;;7.88;4.22;;;;;;;22.74;51.75;99186.38;8171883;29;20500;-85
2022/09/07 16:16:32;;;;;;;14.30;4.70;;;;;;;22.62;52.58;99183.94;8160480;29;20056;-84
2022/09/07 16:20:35;;;;;;;7.80;5.07;;;;;;;22.50;53.38;99181.53;8171783;29;20470;-84
2022/09/07 16:24:37;;;;;;;12.13;4.75;;;;;;;22.36;54.05;99182.25;8169639;29;20058;-83
2022/09/07 16:28:39;;;;;;;13.43;4.30;;;;;;;22.23;54.91;99184.53;8174551;29;20055;-84
2022/09/07 16:32:40;;;;;;;8.88;4.85;;;;;;;22.09;55.17;99173.47;8171127;29;20071;-83
2022/09/07 16:36:42;;;;;;;12.65;5.32;;;;;;;21.97;55.71;99179.25;8122395;29;20056;-84
2022/09/07 16:40:43;;;;;;;10.50;4.43;;;;;;;21.85;55.98;99163.03;8173152;29;20429;-84
2022/09/07 16:44:43;;;;;;;16.02;7.22;;;;;;;21.71;56.25;99157.44;8182762;29;20054;-84
2022/09/07 16:48:47;;;;;;;17.52;9.93;;;;;;;21.63;56.20;99155.81;8154683;29;20062;-84
2022/09/07 16:52:48;;;;;;;13.98;5.30;;;;;;;21.53;56.07;99156.50;8170125;29;20537;-84
2022/09/07 16:56:51;;;;;;;11.10;5.00;;;;;;;21.47;56.20;99148.63;8171365;29;20139;-85
2022/09/07 17:00:52;;;;;;;7.22;4.97;;;;;;;21.40;56.03;99137.59;8155473;29;20051;-85
2022/09/07 17:04:53;;;;;;;7.15;4.80;;;;;;;21.35;56.17;99139.91;8170908;29;20409;-84
2022/09/07 17:08:54;;;;;;;7.80;4.60;;;;;;;21.23;56.31;99132.72;8171349;29;20148;-86
2022/09/07 17:12:55;;;;;;;6.40;4.15;;;;;;;21.13;56.43;99133.38;8170694;29;20099;-85
2022/09/07 17:16:57;;;;;;;9.70;4.50;;;;;;;21.04;56.42;99146.63;8153002;29;20212;-85
2022/09/07 17:20:59;;;;;;;6.30;3.50;;;;;;;20.94;56.59;99141.81;8097219;29;20065;-85
2022/09/07 17:25:03;;;;;;;9.60;4.13;;;;;;;20.88;56.44;99143.34;8117572;29;20073;-85
2022/09/07 17:29:06;;;;;;;8.18;4.30;;;;;;;20.78;56.38;99138.53;8133023;29;20040;-84
2022/09/07 17:33:06;;;;;;;12.15;4.10;;;;;;;20.75;56.27;99151.03;8104030;29;20055;-83
2022/09/07 17:37:08;;;;;;;8.77;3.70;;;;;;;20.73;56.22;99149.84;8070959;29;20052;-84
2022/09/07 17:41:12;;;;;;;10.38;4.20;;;;;;;20.67;56.18;99161.13;8135395;29;20044;-86
2022/09/07 17:45:13;;;;;;;9.00;4.53;;;;;;;20.64;56.13;99172.06;8108034;29;20048;-84
2022/09/07 17:49:15;;;;;;;10.90;4.30;;;;;;;20.59;56.00;99159.47;8125419;29;20102;-86
2022/09/07 17:53:16;;;;;;;9.25;3.97;;;;;;;20.54;55.89;99173.50;8164884;29;20058;-86
2022/09/07 17:57:17;;;;;;;9.05;3.83;;;;;;;20.49;56.28;99176.59;8173816;29;20050;-85
2022/09/07 18:01:19;;;;;;;13.25;5.20;;;;;;;20.43;56.34;99183.56;8172839;29;20047;-85
2022/09/07 18:05:20;;;;;;;14.23;4.47;;;;;;;20.39;56.33;99193.69;8169511;29;20066;-84
2022/09/07 18:09:21;;;;;;;6.53;4.20;;;;;;;20.38;56.46;99186.63;8168768;29;20138;-83
2022/09/07 18:13:22;;;;;;;14.07;4.40;;;;;;;20.36;56.31;99185.41;8169880;29;20063;-84
2022/09/07 18:17:23;;;;;;;11.68;4.80;;;;;;;20.35;56.24;99181.09;8155341;29;20421;-88
2022/09/07 18:21:29;;;;;;;20.95;4.80;;;;;;;20.32;56.24;99182.63;8152020;29;20138;-85
2022/09/07 18:25:30;;;;;;;32.47;5.78;;;;;;;20.32;56.26;99188.09;8169141;29;20043;-86
2022/09/07 18:29:32;;;;;;;23.75;4.93;;;;;;;20.31;56.02;99181.03;8167304;29;20042;-86
2022/09/07 18:33:34;;;;;;;12.80;4.30;;;;;;;20.31;56.00;99178.28;8168691;29;20047;-84
2022/09/07 18:37:35;;;;;;;13.52;4.43;;;;;;;20.28;55.88;99176.28;8166804;29;20413;-84
2022/09/07 18:41:39;;;;;;;11.50;4.40;;;;;;;20.25;56.02;99179.75;8167332;29;20051;-85
2022/09/07 18:45:40;;;;;;;14.30;4.60;;;;;;;20.23;55.90;99173.84;8156740;29;20442;-85
2022/09/07 18:49:41;;;;;;;9.20;4.65;;;;;;;20.19;55.66;99178.50;8167815;29;20059;-84
2022/09/07 18:53:43;;;;;;;9.02;4.60;;;;;;;20.19;55.54;99168.34;8167098;29;20181;-85
2022/09/07 18:57:44;;;;;;;12.93;4.65;;;;;;;20.19;55.43;99173.03;8167226;29;20035;-83
2022/09/07 19:01:45;;;;;;;12.05;4.68;;;;;;;20.18;55.21;99166.75;8167560;29;20052;-84
2022/09/07 19:05:47;;;;;;;11.18;5.15;;;;;;;20.16;55.13;99171.00;8145694;29;20047;-86
2022/09/07 19:09:49;;;;;;;13.45;5.03;;;;;;;20.12;54.95;99172.91;8166354;29;20078;-85